Hauptseite
METAR-TAF:

METAR-TAF

Flughäfen :

Mitiga International Airport

Tripolis, Libyen

Breite: 32-54N, Länge: 13-17E, Höhe: 11 m

METAR: fehlend

Zeit: 20:53 (18:53 UTC)

Prognose

Neuester Wetterbericht von vor 7 Stunden und 53 Minuten, um 11:00 UTC
Gültige Prognose vom 18 um 12 UTC bis 19 um 12 UTC
Wind 12 kt aus West
Sichtweite 10 km oder mehr
Leicht bewölkt in der Höhe von 2500 ft
Aufgelockert bewölkt in der Höhe von 7000 ft
Übergehend zu
vom 19 um 02 UTC bis 19 um 04 UTC
Wind 2 kt aus unterschiedlichen Richtungen
Sichtweite: 8000 m
Übergehend zu
vom 19 um 06 UTC bis 19 um 08 UTC
Wind 8 kt aus Süd

TAF: HLLM 181100Z 1812/1912 27012KT 9999 FEW025 SCT070 BECMG 1902/1904 VRB02KT 8000 NSC BECMG 1906/1908 18008KT

Wetterbeobachtungen und Prognosen von mehr als 4000 Flughäfen (METAR und TAF Bericht).

Die verfügbaren Stationen werden durch gelbe und rote Markierungen auf der Karte dargestellt.

Führen Sie die Maus auf sie, um den Namen der Station zu sehen.

Darauf klicken, um die Beobachtung von Wetterbeobachtungen und Prognosen zu sehen.

Um die Karte zu ändern : klicken Sie auf den grünen Tasten mit einem schwarzen Kreuz Zum Vergrößern, auf den grünen Button mit einem Gedankenstrich zu verkleinern, oder auf die grünen Pfeile für benachbarte Karten.


METAR-TAF: